KFGX

Fleming-Mason Airport

Flemingsburg, Kentucky, USA
METAR KFGX 230955Z AUTO 11005KT 2 1/2SM BR SCT001 OVC060 09/09 A3029 RMK AO2 T00870087
Observed Flight Rules
Feb-23 @ 09:55 UTC (31 minutes ago) Instrument Flight Rules
Wind Visibility Clouds Conditions
110° at 5 knots 2 1/2 miles
  • Scattered at 100' AGL
  • Overcast at 6,000' AGL
  • Mist
Temperatures Readings
Current 9°C / 48°F
Dewpoint 9°C / 48°F
Humidity 100%
Altimeter 30.29" Hg
Pressure 1026 hPa
Elevation 278
METAR KFGX 230955Z AUTO 11005KT 2 1/2SM BR SCT001 OVC060 09/09 A3029 RMK AO2 T00870087
Observed Flight Rules
Feb-23 @ 09:55 UTC
(31 minutes ago)
IFR
Wind Visibility
110° at 5 knots 2 1/2 miles
Clouds
  • Scattered at 100' AGL
  • Overcast at 6,000' AGL
Conditions
  • Mist
Temperature Dewpoint
9°C / 48°F 9°C / 48°F
Humidity Altimeter Pressure
100% 30.29" Hg 1026 hPa